createdAt,value
2022-12-31T00:01:27.055Z,23.90
2022-12-31T00:03:54.809Z,20.95
2022-12-31T00:06:26.119Z,24.20
2022-12-31T00:08:55.439Z,23.62
2022-12-31T00:11:23.809Z,24.95
2022-12-31T00:13:50.944Z,22.70
2022-12-31T00:16:21.256Z,25.75
2022-12-31T00:18:51.363Z,22.77
2022-12-31T00:21:19.788Z,23.92
2022-12-31T00:23:47.696Z,21.75
2022-12-31T00:26:17.858Z,21.57
2022-12-31T00:28:45.166Z,21.55
2022-12-31T00:31:15.165Z,22.60
2022-12-31T00:33:42.539Z,20.52
2022-12-31T00:36:15.590Z,24.80
2022-12-31T00:38:45.256Z,22.83
2022-12-31T00:41:13.029Z,25.77
2022-12-31T00:43:39.946Z,25.25
2022-12-31T00:46:07.878Z,25.17
2022-12-31T00:48:36.085Z,24.87
2022-12-31T00:51:05.605Z,29.47
2022-12-31T00:53:32.588Z,26.80
2022-12-31T00:56:01.307Z,21.85
2022-12-31T00:58:28.807Z,28.62
2022-12-31T01:00:55.872Z,26.10
2022-12-31T01:03:23.109Z,34.90
2022-12-31T01:05:50.584Z,35.67
2022-12-31T01:08:18.071Z,53.15
2022-12-31T01:11:09.518Z,57.08
2022-12-31T01:13:36.512Z,57.13
2022-12-31T01:16:11.366Z,63.17
2022-12-31T01:18:39.216Z,75.05
2022-12-31T01:21:09.869Z,66.20
2022-12-31T01:23:36.877Z,70.40
2022-12-31T01:26:06.517Z,68.40
2022-12-31T01:28:34.318Z,65.37
2022-12-31T01:31:12.679Z,60.95
2022-12-31T01:33:40.073Z,71.57
2022-12-31T01:36:25.374Z,70.07
2022-12-31T01:38:55.102Z,63.03
2022-12-31T01:41:28.202Z,61.77
2022-12-31T01:43:58.700Z,65.30
2022-12-31T01:46:46.505Z,64.62
2022-12-31T01:49:46.215Z,77.62
2022-12-31T01:52:28.025Z,64.50
2022-12-31T01:55:05.893Z,68.63
2022-12-31T01:57:33.082Z,54.05
2022-12-31T02:00:01.845Z,59.22
2022-12-31T02:02:29.077Z,55.05
2022-12-31T02:05:00.229Z,56.28
2022-12-31T02:07:27.264Z,62.13
2022-12-31T02:09:54.466Z,48.40
2022-12-31T02:12:21.617Z,44.28
2022-12-31T02:14:51.990Z,43.72
2022-12-31T02:17:28.104Z,43.20
2022-12-31T02:20:13.617Z,40.77
2022-12-31T02:23:17.176Z,42.25
2022-12-31T02:26:04.096Z,33.00
2022-12-31T02:28:43.103Z,37.17
2022-12-31T02:31:24.533Z,39.35
2022-12-31T02:33:57.594Z,40.93
2022-12-31T02:36:30.405Z,32.28
2022-12-31T02:38:58.713Z,36.55
2022-12-31T02:41:44.511Z,37.08
2022-12-31T02:44:39.098Z,38.40
2022-12-31T02:47:09.025Z,37.83
2022-12-31T02:49:48.036Z,37.22
2022-12-31T02:52:23.464Z,39.53
2022-12-31T02:55:03.129Z,37.25
2022-12-31T02:58:08.525Z,37.83
2022-12-31T03:01:01.817Z,38.70
2022-12-31T03:03:29.197Z,46.00
2022-12-31T03:05:57.600Z,43.72
2022-12-31T03:08:26.411Z,39.67
2022-12-31T03:10:53.309Z,41.95
2022-12-31T03:13:20.197Z,44.67
2022-12-31T03:15:47.196Z,43.42
2022-12-31T03:18:16.566Z,41.88
2022-12-31T03:21:07.913Z,45.75
2022-12-31T03:23:40.901Z,45.28
2022-12-31T03:26:11.732Z,48.50
2022-12-31T03:28:41.187Z,49.70
2022-12-31T03:31:08.711Z,56.30
2022-12-31T03:33:37.798Z,52.08
2022-12-31T03:36:09.738Z,54.95
2022-12-31T03:38:37.138Z,56.53
2022-12-31T03:41:04.909Z,59.95
2022-12-31T03:43:32.006Z,49.40
2022-12-31T03:46:01.351Z,45.15
2022-12-31T03:48:28.958Z,64.32
2022-12-31T03:50:56.203Z,46.13
2022-12-31T03:53:23.336Z,44.45
2022-12-31T03:55:54.036Z,43.70
2022-12-31T03:58:21.831Z,43.15
2022-12-31T04:00:49.307Z,48.47
2022-12-31T04:03:16.429Z,47.00
2022-12-31T04:05:43.553Z,41.72
2022-12-31T04:08:10.434Z,39.55
2022-12-31T04:10:37.343Z,39.78
2022-12-31T04:13:04.913Z,40.55
2022-12-31T04:15:32.243Z,37.87
2022-12-31T04:17:59.130Z,43.35
2022-12-31T04:20:26.160Z,35.15
2022-12-31T04:22:53.154Z,38.05
2022-12-31T04:25:20.083Z,47.25
2022-12-31T04:27:47.160Z,41.73
2022-12-31T04:30:15.037Z,44.40
2022-12-31T04:32:42.231Z,50.47
2022-12-31T04:35:10.558Z,38.80
2022-12-31T04:37:37.501Z,46.05
2022-12-31T04:40:07.087Z,44.87
2022-12-31T04:42:34.981Z,40.78
2022-12-31T04:45:01.940Z,47.33
2022-12-31T04:47:28.901Z,43.10
2022-12-31T04:49:55.998Z,45.72
2022-12-31T04:52:23.077Z,53.07
2022-12-31T04:54:50.283Z,45.17
2022-12-31T04:57:17.286Z,50.42
2022-12-31T04:59:44.217Z,50.72
2022-12-31T05:02:11.176Z,50.22
2022-12-31T05:04:38.181Z,48.13
2022-12-31T05:07:05.030Z,50.12
2022-12-31T05:09:31.898Z,49.22
2022-12-31T05:11:58.808Z,44.03
2022-12-31T05:14:25.910Z,50.50
2022-12-31T05:16:52.980Z,59.97
2022-12-31T05:19:19.946Z,52.38
2022-12-31T05:22:07.283Z,48.20
2022-12-31T05:24:34.164Z,42.67
2022-12-31T05:27:01.265Z,38.90
2022-12-31T05:29:28.666Z,39.77
2022-12-31T05:31:55.791Z,39.03
2022-12-31T05:34:22.659Z,39.10
2022-12-31T05:36:49.573Z,39.47
2022-12-31T05:39:16.477Z,36.28
2022-12-31T05:41:43.311Z,37.87
2022-12-31T05:44:10.984Z,34.22
2022-12-31T05:46:37.946Z,38.90
2022-12-31T05:49:05.039Z,32.75
2022-12-31T05:51:32.043Z,42.15
2022-12-31T05:53:58.933Z,41.73
2022-12-31T05:56:25.929Z,38.55
2022-12-31T05:58:53.085Z,32.25
2022-12-31T06:01:20.152Z,36.92
2022-12-31T06:03:47.218Z,40.08
2022-12-31T06:06:14.168Z,31.53
2022-12-31T06:08:41.174Z,35.47
2022-12-31T06:11:08.142Z,39.28
2022-12-31T06:13:35.006Z,32.75
2022-12-31T06:16:06.735Z,40.80
2022-12-31T06:18:33.943Z,41.20
2022-12-31T06:21:01.166Z,41.58
2022-12-31T06:23:28.018Z,42.13
2022-12-31T06:25:54.879Z,37.50
2022-12-31T06:28:21.904Z,33.85
2022-12-31T06:30:49.088Z,40.23
2022-12-31T06:33:15.926Z,43.25
2022-12-31T06:35:42.844Z,40.08
2022-12-31T06:38:10.176Z,36.72
2022-12-31T06:40:37.819Z,36.10
2022-12-31T06:43:05.803Z,40.30
2022-12-31T06:45:32.821Z,43.00
2022-12-31T06:47:59.938Z,38.80
2022-12-31T06:50:26.778Z,38.65
2022-12-31T06:52:53.605Z,35.72
2022-12-31T06:55:20.887Z,40.23
2022-12-31T06:57:48.281Z,37.03
2022-12-31T07:00:16.224Z,32.65
2022-12-31T07:03:25.322Z,32.13
2022-12-31T07:06:10.708Z,34.70
2022-12-31T07:08:49.857Z,35.67
2022-12-31T07:11:29.201Z,32.28
2022-12-31T07:14:02.222Z,33.25
2022-12-31T07:16:55.173Z,32.40
2022-12-31T07:19:41.563Z,36.55
2022-12-31T07:22:13.924Z,35.83
2022-12-31T07:24:41.886Z,38.08
2022-12-31T07:27:48.827Z,36.92
2022-12-31T07:30:43.630Z,33.90
2022-12-31T07:33:50.748Z,33.85
2022-12-31T07:36:41.727Z,35.60
2022-12-31T07:39:16.838Z,41.92
2022-12-31T07:41:52.617Z,38.95
2022-12-31T07:44:40.891Z,39.08
2022-12-31T07:47:20.400Z,38.88
2022-12-31T07:49:47.953Z,42.70
2022-12-31T07:52:15.297Z,39.75
2022-12-31T07:54:42.915Z,43.63
2022-12-31T07:57:12.401Z,52.70
2022-12-31T07:59:57.811Z,45.55
2022-12-31T08:02:49.505Z,38.90
2022-12-31T08:05:27.369Z,44.92
2022-12-31T08:08:29.600Z,44.13
2022-12-31T08:11:14.533Z,44.72
2022-12-31T08:13:42.679Z,42.10
2022-12-31T08:16:13.164Z,46.57
2022-12-31T08:18:40.757Z,43.22
2022-12-31T08:21:18.076Z,43.05
2022-12-31T08:24:03.080Z,41.83
2022-12-31T08:26:48.185Z,43.55
2022-12-31T08:29:44.458Z,48.77
2022-12-31T08:32:20.935Z,45.33
2022-12-31T08:35:35.444Z,47.28
2022-12-31T08:38:20.935Z,43.25
2022-12-31T08:41:16.458Z,38.20
2022-12-31T08:44:16.159Z,51.80
2022-12-31T08:46:45.660Z,45.28
2022-12-31T08:49:15.614Z,42.83
2022-12-31T08:51:43.018Z,42.72
2022-12-31T08:54:12.293Z,52.53
2022-12-31T08:56:54.199Z,46.70
2022-12-31T08:59:30.531Z,40.38
2022-12-31T09:02:08.378Z,34.38
2022-12-31T09:04:56.609Z,45.50
2022-12-31T09:07:34.278Z,49.25
2022-12-31T09:10:20.346Z,46.50
2022-12-31T09:13:08.044Z,41.05
2022-12-31T09:16:04.190Z,43.38
2022-12-31T09:18:34.388Z,59.20
2022-12-31T09:21:01.524Z,56.60
2022-12-31T09:23:28.718Z,48.30
2022-12-31T09:26:00.680Z,40.53
2022-12-31T09:28:45.878Z,41.50
2022-12-31T09:31:31.613Z,50.42
2022-12-31T09:34:21.255Z,48.92
2022-12-31T09:36:55.828Z,53.70
2022-12-31T09:39:29.071Z,37.20
2022-12-31T09:42:07.909Z,44.47
2022-12-31T09:44:37.461Z,47.85
2022-12-31T09:47:28.970Z,50.22
2022-12-31T09:50:27.531Z,41.33
2022-12-31T09:53:13.421Z,46.05
2022-12-31T09:55:49.319Z,48.05
2022-12-31T09:58:22.012Z,44.65
2022-12-31T10:00:58.111Z,49.63
2022-12-31T10:03:43.238Z,46.87
2022-12-31T10:06:34.496Z,44.60
2022-12-31T10:09:07.094Z,43.28
2022-12-31T10:11:52.232Z,48.92
2022-12-31T10:14:46.903Z,52.53
2022-12-31T10:17:23.556Z,61.53
2022-12-31T10:20:15.636Z,53.55
2022-12-31T10:22:42.511Z,40.80
2022-12-31T10:25:39.265Z,41.28
2022-12-31T10:28:18.353Z,47.67
2022-12-31T10:31:13.226Z,42.33
2022-12-31T10:34:04.697Z,44.78
2022-12-31T10:36:45.367Z,45.80
2022-12-31T10:39:42.555Z,45.83
2022-12-31T10:42:47.210Z,44.40
2022-12-31T10:45:45.493Z,47.40
2022-12-31T10:48:52.503Z,47.35
2022-12-31T10:51:44.899Z,45.90
2022-12-31T10:54:36.452Z,44.97
2022-12-31T10:57:37.538Z,47.28
2022-12-31T11:00:21.681Z,57.60
2022-12-31T11:03:03.315Z,48.78
2022-12-31T11:06:07.609Z,61.83
2022-12-31T11:09:09.894Z,46.78
2022-12-31T11:11:42.845Z,48.85
2022-12-31T11:14:31.458Z,48.80
2022-12-31T11:17:21.777Z,46.70
2022-12-31T11:19:54.522Z,42.42
2022-12-31T11:22:36.486Z,44.63
2022-12-31T11:25:12.473Z,45.35
2022-12-31T11:27:53.824Z,41.67
2022-12-31T11:31:02.489Z,45.35
2022-12-31T11:33:35.289Z,45.72
2022-12-31T11:36:39.507Z,47.35
2022-12-31T11:39:42.571Z,47.78
2022-12-31T11:42:16.326Z,40.70
2022-12-31T11:44:56.033Z,42.10
2022-12-31T11:48:04.265Z,35.60
2022-12-31T11:50:59.310Z,44.83
2022-12-31T11:53:39.898Z,46.28
2022-12-31T11:56:19.203Z,42.27
2022-12-31T11:58:54.329Z,42.08
2022-12-31T12:01:42.287Z,34.97
2022-12-31T12:04:11.142Z,38.65
2022-12-31T12:06:40.283Z,45.88
2022-12-31T12:09:13.587Z,45.33
2022-12-31T12:11:41.101Z,42.28
2022-12-31T12:14:32.330Z,44.20
2022-12-31T12:17:04.753Z,43.28
2022-12-31T12:19:35.077Z,40.80
2022-12-31T12:22:22.028Z,45.97
2022-12-31T12:25:04.005Z,44.10
2022-12-31T12:27:33.669Z,45.08
2022-12-31T12:30:30.119Z,46.05
2022-12-31T12:33:00.599Z,45.63
2022-12-31T12:35:35.821Z,46.37
2022-12-31T12:38:12.657Z,42.75
2022-12-31T12:40:40.158Z,45.80
2022-12-31T12:43:22.580Z,46.60
2022-12-31T12:45:52.438Z,44.00
2022-12-31T12:48:30.064Z,50.77
2022-12-31T12:50:58.001Z,50.08
2022-12-31T12:54:14.847Z,45.67
2022-12-31T12:56:59.992Z,40.20
2022-12-31T13:10:03.318Z,43.38
2022-12-31T13:13:21.941Z,40.72
2022-12-31T13:15:42.618Z,43.30
2022-12-31T13:18:26.280Z,40.13
2022-12-31T13:21:19.886Z,43.45
2022-12-31T13:24:04.877Z,45.05
2022-12-31T13:26:38.964Z,42.72
2022-12-31T13:29:09.236Z,47.65
2022-12-31T13:31:39.701Z,49.37
2022-12-31T13:34:17.365Z,46.10
2022-12-31T13:36:48.532Z,44.25
2022-12-31T13:39:28.656Z,47.97
2022-12-31T13:42:09.061Z,47.58
2022-12-31T13:44:47.815Z,49.37
2022-12-31T13:47:30.503Z,52.53
2022-12-31T13:50:14.832Z,48.35
2022-12-31T13:52:49.143Z,51.00
2022-12-31T13:55:23.029Z,62.88
2022-12-31T13:57:58.399Z,60.17
2022-12-31T14:00:30.113Z,43.80
2022-12-31T14:03:14.289Z,42.60
2022-12-31T14:05:56.438Z,43.72
2022-12-31T14:08:23.469Z,47.47
2022-12-31T14:10:53.117Z,44.00
2022-12-31T14:13:35.556Z,49.40
2022-12-31T14:16:28.516Z,47.28
2022-12-31T14:19:03.027Z,46.58
2022-12-31T14:21:47.197Z,54.63
2022-12-31T14:24:26.259Z,50.20
2022-12-31T14:26:58.437Z,51.60
2022-12-31T14:29:48.187Z,52.25
2022-12-31T14:32:30.993Z,55.80
2022-12-31T14:35:03.485Z,52.65
2022-12-31T14:37:38.782Z,58.27
2022-12-31T14:40:12.745Z,58.47
2022-12-31T14:43:04.645Z,50.05
2022-12-31T14:45:53.052Z,49.47
2022-12-31T14:48:28.871Z,50.00
2022-12-31T14:51:01.986Z,54.37
2022-12-31T14:53:29.643Z,54.83
2022-12-31T14:56:19.023Z,45.42
2022-12-31T14:58:56.389Z,50.30
2022-12-31T15:01:26.055Z,45.55
2022-12-31T15:03:58.163Z,53.07
2022-12-31T15:06:44.564Z,47.28
2022-12-31T15:09:28.206Z,46.40
2022-12-31T15:12:00.861Z,46.30
2022-12-31T15:15:05.353Z,52.00
2022-12-31T15:17:48.042Z,50.70
2022-12-31T15:20:45.691Z,52.78
2022-12-31T15:23:21.278Z,48.92
2022-12-31T15:25:52.094Z,55.60
2022-12-31T15:28:35.573Z,56.92
2022-12-31T15:31:07.420Z,53.97
2022-12-31T15:33:53.979Z,51.05
2022-12-31T15:36:25.350Z,52.78
2022-12-31T15:39:05.529Z,53.55
2022-12-31T15:42:18.795Z,63.38
2022-12-31T15:44:53.286Z,65.57
2022-12-31T15:47:36.575Z,72.70
2022-12-31T15:50:07.968Z,62.20
2022-12-31T15:52:48.975Z,64.20
2022-12-31T15:55:25.889Z,62.28
2022-12-31T15:58:00.301Z,57.57
2022-12-31T16:00:38.366Z,59.78
2022-12-31T16:03:21.187Z,62.60
2022-12-31T16:05:48.843Z,63.70
2022-12-31T16:08:28.497Z,67.85
2022-12-31T16:10:55.706Z,57.37
2022-12-31T16:13:26.209Z,127.47
2022-12-31T16:16:03.496Z,263.45
2022-12-31T16:18:39.043Z,101.68
2022-12-31T16:21:06.592Z,76.80
2022-12-31T16:23:50.013Z,79.60
2022-12-31T16:26:16.971Z,76.35
2022-12-31T16:28:48.755Z,92.72
2022-12-31T16:31:18.966Z,112.40
2022-12-31T16:33:47.124Z,105.35
2022-12-31T16:36:22.961Z,110.87
2022-12-31T16:38:50.096Z,107.57
2022-12-31T16:41:19.974Z,92.37
2022-12-31T16:43:49.160Z,103.22
2022-12-31T16:46:21.887Z,103.10
2022-12-31T16:48:53.520Z,102.47
2022-12-31T16:51:24.334Z,91.10
2022-12-31T16:53:52.069Z,90.20
2022-12-31T16:56:39.318Z,92.55
2022-12-31T16:59:23.992Z,85.05
2022-12-31T17:01:52.432Z,76.10
2022-12-31T17:04:21.155Z,77.22
2022-12-31T17:06:48.216Z,77.80
2022-12-31T17:09:21.471Z,82.10
2022-12-31T17:11:52.930Z,84.30
2022-12-31T17:14:28.072Z,83.53
2022-12-31T17:17:04.523Z,82.97
2022-12-31T17:19:43.332Z,71.35
2022-12-31T17:22:29.793Z,77.78
2022-12-31T17:25:03.741Z,83.03
2022-12-31T17:27:31.373Z,78.30
2022-12-31T17:30:35.285Z,76.60
2022-12-31T17:33:24.794Z,70.12
2022-12-31T17:36:16.346Z,66.53
2022-12-31T17:38:43.865Z,74.00
2022-12-31T17:41:23.268Z,74.27
2022-12-31T17:43:55.272Z,75.47
2022-12-31T17:46:23.585Z,74.32
2022-12-31T17:48:56.127Z,77.43
2022-12-31T17:51:24.130Z,78.35
2022-12-31T17:53:51.383Z,98.37
2022-12-31T17:56:19.796Z,130.48
2022-12-31T17:58:52.378Z,117.47
2022-12-31T18:01:22.781Z,113.05
2022-12-31T18:03:50.153Z,101.35
2022-12-31T18:06:19.590Z,136.50
2022-12-31T18:08:47.243Z,89.85
2022-12-31T18:11:18.282Z,103.38
2022-12-31T18:13:45.852Z,87.35
2022-12-31T18:16:12.875Z,84.28
2022-12-31T18:18:41.877Z,70.20
2022-12-31T18:21:18.613Z,83.15
2022-12-31T18:23:47.175Z,93.68
2022-12-31T18:26:19.966Z,88.45
2022-12-31T18:28:48.180Z,89.10
2022-12-31T18:31:27.559Z,110.93
2022-12-31T18:33:56.930Z,114.43
2022-12-31T18:36:24.747Z,105.63
2022-12-31T18:38:51.893Z,96.93
2022-12-31T18:41:21.555Z,94.87
2022-12-31T18:43:49.099Z,80.87
2022-12-31T18:46:18.668Z,78.62
2022-12-31T18:48:45.981Z,82.32
2022-12-31T18:51:31.311Z,82.22
2022-12-31T18:54:00.475Z,79.80
2022-12-31T18:56:28.326Z,81.30
2022-12-31T18:58:55.608Z,89.72
2022-12-31T19:01:34.082Z,85.07
2022-12-31T19:04:11.667Z,77.62
2022-12-31T19:06:38.591Z,78.87
2022-12-31T19:09:17.962Z,76.00
2022-12-31T19:11:53.455Z,71.50
2022-12-31T19:14:24.273Z,82.12
2022-12-31T19:16:53.450Z,72.68
2022-12-31T19:19:21.161Z,75.30
2022-12-31T19:21:48.465Z,77.27
2022-12-31T19:24:20.757Z,73.72
2022-12-31T19:26:48.426Z,77.78
2022-12-31T19:29:27.636Z,73.40
2022-12-31T19:31:54.840Z,77.37
2022-12-31T19:34:21.891Z,79.20
2022-12-31T19:36:49.098Z,75.65
2022-12-31T19:39:18.990Z,78.18
2022-12-31T19:41:49.158Z,76.85
2022-12-31T19:44:21.399Z,79.95
2022-12-31T19:46:49.420Z,72.83
2022-12-31T19:49:16.639Z,77.68
2022-12-31T19:51:43.608Z,75.47
2022-12-31T19:54:12.924Z,83.47
2022-12-31T19:56:39.828Z,68.93
2022-12-31T19:59:09.036Z,95.70
2022-12-31T20:01:36.647Z,96.12
2022-12-31T20:04:03.960Z,85.43
2022-12-31T20:06:30.835Z,77.18
2022-12-31T20:08:57.711Z,74.70
2022-12-31T20:11:25.037Z,78.57
2022-12-31T20:13:53.943Z,73.78
2022-12-31T20:16:24.071Z,86.03
2022-12-31T20:18:51.366Z,83.47
2022-12-31T20:21:23.945Z,73.00
2022-12-31T20:23:52.394Z,71.53
2022-12-31T20:26:20.681Z,72.85
2022-12-31T20:28:48.698Z,78.03
2022-12-31T20:31:19.125Z,68.00
2022-12-31T20:33:46.173Z,71.40
2022-12-31T20:36:15.064Z,79.90
2022-12-31T20:38:42.063Z,73.85
2022-12-31T20:41:12.066Z,64.95
2022-12-31T20:43:39.586Z,70.03
2022-12-31T20:46:19.697Z,69.70
2022-12-31T20:48:48.447Z,68.67
2022-12-31T20:51:17.189Z,65.57
2022-12-31T20:53:49.439Z,71.22
2022-12-31T20:56:17.426Z,76.78
2022-12-31T20:58:45.211Z,65.72
2022-12-31T21:01:13.588Z,75.87
2022-12-31T21:06:30.542Z,69.47
2022-12-31T21:08:59.635Z,65.75
2022-12-31T21:11:46.310Z,63.50
2022-12-31T21:14:13.351Z,66.67
2022-12-31T21:16:40.347Z,73.95
2022-12-31T21:19:07.337Z,64.75
2022-12-31T21:21:34.251Z,66.43
2022-12-31T21:24:01.212Z,69.00
2022-12-31T21:26:29.233Z,66.67
2022-12-31T21:28:56.379Z,71.05
2022-12-31T21:31:23.442Z,75.95
2022-12-31T21:33:50.386Z,70.35
2022-12-31T21:36:17.259Z,78.82
2022-12-31T21:38:44.350Z,80.33
2022-12-31T21:41:33.498Z,86.30
2022-12-31T21:44:04.468Z,95.80
2022-12-31T21:46:31.534Z,90.95
2022-12-31T21:49:00.132Z,89.30
2022-12-31T21:51:27.857Z,93.43
2022-12-31T21:53:54.930Z,108.60
2022-12-31T21:56:22.677Z,149.12
2022-12-31T21:59:16.063Z,90.87
2022-12-31T22:02:02.298Z,75.57
2022-12-31T22:05:01.532Z,77.97
2022-12-31T22:07:16.157Z,85.22
2022-12-31T22:09:43.053Z,73.18
2022-12-31T22:12:09.990Z,66.25
2022-12-31T22:14:36.903Z,64.47
2022-12-31T22:17:03.789Z,62.20
2022-12-31T22:19:43.505Z,80.38
2022-12-31T22:22:19.552Z,62.97
2022-12-31T22:24:46.436Z,75.90
2022-12-31T22:27:28.874Z,64.32
2022-12-31T22:29:56.844Z,65.93
2022-12-31T22:32:23.788Z,74.45
2022-12-31T22:34:50.646Z,97.65
2022-12-31T22:37:46.560Z,132.43
2022-12-31T22:40:05.010Z,136.48
2022-12-31T22:42:31.975Z,122.23
2022-12-31T22:44:58.769Z,89.50
2022-12-31T22:47:25.693Z,114.45
2022-12-31T22:49:52.690Z,116.65
2022-12-31T22:52:19.693Z,122.28
2022-12-31T22:54:46.620Z,110.93
2022-12-31T22:57:19.802Z,93.15
2022-12-31T22:59:48.018Z,103.82
2022-12-31T23:02:16.399Z,88.90
2022-12-31T23:04:43.559Z,102.82
2022-12-31T23:07:10.540Z,108.93
2022-12-31T23:09:56.299Z,131.07
2022-12-31T23:12:23.235Z,122.95
2022-12-31T23:15:09.120Z,160.05
2022-12-31T23:17:54.798Z,215.95
2022-12-31T23:20:42.196Z,166.17
2022-12-31T23:23:14.859Z,170.20
2022-12-31T23:25:47.390Z,233.87
2022-12-31T23:28:17.252Z,213.68
2022-12-31T23:30:44.936Z,314.65
2022-12-31T23:33:20.749Z,257.03
2022-12-31T23:35:48.166Z,259.27
2022-12-31T23:38:17.474Z,239.02
2022-12-31T23:40:45.133Z,234.62
2022-12-31T23:43:20.425Z,255.10
2022-12-31T23:45:51.823Z,296.83
2022-12-31T23:48:18.847Z,238.50
2022-12-31T23:50:52.923Z,208.90
2022-12-31T23:53:20.864Z,225.77
2022-12-31T23:55:47.777Z,205.20
2022-12-31T23:58:15.448Z,189.67
